Terminal Aerodrome Forecast
Issued by NWS

Home | Current Version | Previous Version | Text Only | Print | Product List | Glossary On
Versions: 1 2 3 4 5 6 7 8 9 10 11 12 13 14 15 16 17 18
940
FTUS44 KTSA 301120
TAFFYV
TAF
KFYV 301120Z 3012/0112 21008KT P6SM SCT015 BKN100
      TEMPO 3012/3016 OVC015
     FM301600 21007KT P6SM BKN015
     FM301800 25007KT P6SM SCT025 BKN250
     FM010000 25003KT P6SM SKC=

USA.gov is the U.S. government's official web portal to all federal, state and local government web resources and services.